createdAt,value
2022-10-20T00:31:12.521Z,0
2022-10-20T00:31:52.854Z,0
2022-10-20T00:32:33.585Z,0
2022-10-20T00:33:13.806Z,0
2022-10-20T00:33:54.318Z,0
2022-10-20T00:34:34.741Z,0
2022-10-20T00:35:15.253Z,0
2022-10-20T00:35:55.708Z,0
2022-10-20T00:36:36.176Z,0
2022-10-20T00:37:16.642Z,0
2022-10-20T00:37:57.159Z,0
2022-10-20T00:44:02.218Z,0
2022-10-20T00:44:42.712Z,0
2022-10-20T00:45:23.185Z,0
2022-10-20T00:46:03.660Z,0
2022-10-20T00:46:44.188Z,0
2022-10-20T00:47:24.587Z,0
2022-10-20T00:48:05.122Z,0
2022-10-20T00:48:45.595Z,0
2022-10-20T00:49:26.057Z,0
2022-10-20T00:50:06.583Z,0
2022-10-20T00:50:47.033Z,0
2022-10-20T00:58:12.271Z,0
2022-10-20T00:58:52.733Z,0
2022-10-20T00:59:33.272Z,0
2022-10-20T01:00:13.698Z,0
2022-10-20T01:00:54.232Z,0
2022-10-20T01:01:34.738Z,0
2022-10-20T01:02:15.225Z,0
2022-10-20T01:02:55.730Z,0
2022-10-20T01:03:36.263Z,0
2022-10-20T01:04:16.709Z,0
2022-10-20T01:04:57.196Z,0
2022-10-20T01:12:22.614Z,0
2022-10-20T01:13:03.069Z,0
2022-10-20T01:13:43.552Z,0
2022-10-20T01:14:24.024Z,0
2022-10-20T01:15:04.457Z,0
2022-10-20T01:15:45.016Z,0
2022-10-20T01:16:25.442Z,0
2022-10-20T01:17:05.920Z,0
2022-10-20T01:17:46.437Z,0
2022-10-20T01:18:26.930Z,0
2022-10-20T01:19:07.381Z,0
2022-10-20T01:25:12.393Z,0
2022-10-20T01:25:52.850Z,0
2022-10-20T01:26:33.342Z,0
2022-10-20T01:27:13.866Z,0
2022-10-20T01:27:54.329Z,0
2022-10-20T01:28:34.844Z,0
2022-10-20T01:29:15.323Z,0
2022-10-20T01:29:55.744Z,0
2022-10-20T01:30:36.236Z,0
2022-10-20T01:31:16.693Z,0
2022-10-20T01:31:57.143Z,0
2022-10-20T01:38:42.102Z,0
2022-10-20T01:39:22.563Z,0
2022-10-20T01:40:03.043Z,0
2022-10-20T01:40:43.559Z,0
2022-10-20T01:41:24.081Z,0
2022-10-20T01:42:04.523Z,0
2022-10-20T01:42:45.000Z,0
2022-10-20T01:43:25.499Z,0
2022-10-20T01:44:06.028Z,0
2022-10-20T01:44:46.470Z,0
2022-10-20T01:45:26.932Z,0
2022-10-20T01:46:07.494Z,0
2022-10-20T01:51:02.174Z,0
2022-10-20T01:52:23.108Z,0
2022-10-20T01:53:03.577Z,0
2022-10-20T01:53:43.989Z,0
2022-10-20T01:54:24.425Z,0
2022-10-20T01:55:04.921Z,0
2022-10-20T01:55:45.387Z,0
2022-10-20T01:56:25.874Z,0
2022-10-20T01:57:06.352Z,0
2022-10-20T01:57:46.853Z,0
2022-10-20T02:05:12.121Z,0
2022-10-20T02:05:52.692Z,0
2022-10-20T02:06:33.150Z,0
2022-10-20T02:07:13.698Z,0
2022-10-20T02:07:54.234Z,0
2022-10-20T02:08:34.723Z,0
2022-10-20T02:09:15.144Z,0
2022-10-20T02:10:36.111Z,0
2022-10-20T02:11:16.563Z,0
2022-10-20T02:11:57.107Z,0
2022-10-20T02:18:42.117Z,0
2022-10-20T02:19:22.561Z,0
2022-10-20T02:20:03.072Z,0
2022-10-20T02:20:43.538Z,0
2022-10-20T02:21:24.000Z,0
2022-10-20T02:22:04.478Z,0
2022-10-20T02:22:44.960Z,0
2022-10-20T02:23:25.429Z,0
2022-10-20T02:24:05.905Z,0
2022-10-20T02:24:46.393Z,0
2022-10-20T02:25:26.907Z,0
2022-10-20T02:33:20.919Z,0
2022-10-20T02:34:01.312Z,0
2022-10-20T02:34:42.460Z,0
2022-10-20T02:35:22.338Z,0
2022-10-20T02:36:02.842Z,0
2022-10-20T02:36:43.371Z,0
2022-10-20T02:37:23.843Z,0
2022-10-20T02:38:04.321Z,0
2022-10-20T02:38:44.810Z,0
2022-10-20T02:39:25.273Z,0
2022-10-20T02:40:05.760Z,0
2022-10-20T02:46:50.638Z,0
2022-10-20T02:47:31.086Z,0
2022-10-20T02:48:11.545Z,0
2022-10-20T02:48:52.038Z,0
2022-10-20T02:49:32.517Z,0
2022-10-20T02:50:12.988Z,0
2022-10-20T02:50:53.537Z,0
2022-10-20T02:51:33.919Z,0
2022-10-20T02:52:14.375Z,0
2022-10-20T02:53:35.386Z,0
2022-10-20T03:01:00.728Z,0
2022-10-20T03:01:41.268Z,0
2022-10-20T03:02:21.668Z,0
2022-10-20T03:03:02.154Z,0
2022-10-20T03:03:42.639Z,0
2022-10-20T03:04:23.183Z,0
2022-10-20T03:05:03.634Z,0
2022-10-20T03:06:24.624Z,0
2022-10-20T03:07:05.075Z,0
2022-10-20T03:07:45.555Z,0
2022-10-20T03:13:50.600Z,0
2022-10-20T03:14:31.141Z,0
2022-10-20T03:15:11.554Z,0
2022-10-20T03:15:52.014Z,0
2022-10-20T03:16:32.453Z,0
2022-10-20T03:17:12.953Z,0
2022-10-20T03:17:53.474Z,0
2022-10-20T03:18:33.917Z,0
2022-10-20T03:19:14.391Z,0
2022-10-20T03:19:54.909Z,0
2022-10-20T03:20:35.325Z,0
2022-10-20T03:21:15.787Z,0
2022-10-20T03:28:00.634Z,0
2022-10-20T03:28:41.072Z,0
2022-10-20T03:29:21.557Z,0
2022-10-20T03:30:02.047Z,0
2022-10-20T03:31:23.046Z,0
2022-10-20T03:32:03.553Z,0
2022-10-20T03:32:44.030Z,0
2022-10-20T03:33:25.031Z,0
2022-10-20T03:34:05.471Z,0
2022-10-20T03:40:51.210Z,0
2022-10-20T03:41:31.664Z,0
2022-10-20T03:42:12.646Z,0
2022-10-20T03:42:53.185Z,0
2022-10-20T03:43:33.585Z,0
2022-10-20T03:44:14.093Z,0
2022-10-20T03:44:54.555Z,0
2022-10-20T03:45:34.995Z,0
2022-10-20T03:46:15.473Z,0
2022-10-20T03:53:00.438Z,0
2022-10-20T03:53:40.853Z,0
2022-10-20T03:54:21.359Z,0
2022-10-20T03:55:01.866Z,0
2022-10-20T03:55:42.275Z,0
2022-10-20T03:56:22.812Z,0
2022-10-20T03:57:05.425Z,0
2022-10-20T03:57:43.844Z,0
2022-10-20T03:58:24.301Z,0
2022-10-20T03:59:04.787Z,0
2022-10-20T03:59:45.277Z,0
2022-10-20T04:00:25.724Z,0
2022-10-20T04:07:39.780Z,0
2022-10-20T04:08:20.282Z,0
2022-10-20T04:09:00.786Z,0
2022-10-20T04:09:41.266Z,0
2022-10-20T04:10:21.659Z,0
2022-10-20T04:11:02.153Z,0
2022-10-20T04:11:42.619Z,0
2022-10-20T04:12:23.121Z,0
2022-10-20T04:13:03.634Z,0
2022-10-20T04:13:44.062Z,0
2022-10-20T04:14:24.566Z,0
2022-10-20T04:16:28.440Z,0
2022-10-20T04:17:09.909Z,0
2022-10-20T04:17:50.288Z,0
2022-10-20T04:18:30.791Z,0
2022-10-20T04:19:11.846Z,0
2022-10-20T04:19:52.356Z,0
2022-10-20T04:20:32.823Z,0
2022-10-20T04:21:13.490Z,0
2022-10-20T04:21:54.090Z,0
2022-10-20T04:22:36.391Z,0
2022-10-20T04:24:40.460Z,0
2022-10-20T04:25:19.961Z,0
2022-10-20T04:26:00.433Z,0
2022-10-20T04:26:40.904Z,0
2022-10-20T04:27:21.365Z,0
2022-10-20T04:28:01.877Z,0
2022-10-20T04:28:42.401Z,0
2022-10-20T04:29:22.884Z,0
2022-10-20T04:30:03.402Z,0
2022-10-20T04:30:44.055Z,0
2022-10-20T04:32:10.138Z,0
2022-10-20T04:32:50.573Z,0
2022-10-20T04:34:22.880Z,0
2022-10-20T04:35:03.593Z,0
2022-10-20T04:35:43.948Z,0
2022-10-20T04:36:24.332Z,0
2022-10-20T04:41:53.940Z,0
2022-10-20T04:44:01.766Z,0
2022-10-20T04:44:48.534Z,0
2022-10-20T04:45:55.714Z,0
2022-10-20T04:46:36.508Z,0
2022-10-20T04:47:20.084Z,0
2022-10-20T04:48:00.541Z,0
2022-10-20T04:48:52.459Z,0
2022-10-20T04:50:51.550Z,0
2022-10-20T04:51:31.983Z,0
2022-10-20T04:52:12.687Z,0
2022-10-20T04:52:53.184Z,0
2022-10-20T04:53:34.217Z,0
2022-10-20T04:54:14.769Z,0
2022-10-20T04:54:55.553Z,0
2022-10-20T04:55:36.095Z,0
2022-10-20T04:59:41.143Z,0
2022-10-20T05:00:21.860Z,0
2022-10-20T05:01:02.676Z,0
2022-10-20T05:01:43.798Z,0
2022-10-20T05:02:24.145Z,0
2022-10-20T05:03:04.980Z,0
2022-10-20T05:03:45.532Z,0
2022-10-20T05:04:25.819Z,0
2022-10-20T05:10:33.167Z,0
2022-10-20T05:11:11.559Z,0
2022-10-20T05:13:24.663Z,0
2022-10-20T05:14:05.301Z,0
2022-10-20T05:14:45.735Z,0
2022-10-20T05:15:26.291Z,0
2022-10-20T05:16:06.766Z,0
2022-10-20T05:16:47.330Z,0
2022-10-20T05:17:27.950Z,0
2022-10-20T05:18:08.388Z,0
2022-10-20T05:18:48.881Z,0
2022-10-20T05:19:29.366Z,0
2022-10-20T05:26:32.631Z,0
2022-10-20T05:27:13.196Z,0
2022-10-20T05:27:53.643Z,0
2022-10-20T05:28:34.169Z,0
2022-10-20T05:29:14.689Z,0
2022-10-20T05:29:55.246Z,0
2022-10-20T05:30:35.838Z,0
2022-10-20T05:31:16.253Z,0
2022-10-20T05:31:57.046Z,0
2022-10-20T05:38:42.616Z,0
2022-10-20T05:39:23.161Z,0
2022-10-20T05:40:03.745Z,4
2022-10-20T05:40:44.092Z,4
2022-10-20T05:41:24.627Z,0
2022-10-20T05:42:05.194Z,0
2022-10-20T05:42:47.462Z,0
2022-10-20T05:47:33.179Z,0
2022-10-20T05:48:13.759Z,4
2022-10-20T05:48:54.261Z,4
2022-10-20T05:49:34.845Z,4
2022-10-20T05:50:15.415Z,4
2022-10-20T05:50:55.815Z,4
2022-10-20T06:31:38.831Z,76
2022-10-20T06:32:21.394Z,76
2022-10-20T06:33:03.167Z,76
2022-10-20T06:33:43.726Z,80
2022-10-20T06:37:08.012Z,92
2022-10-20T06:37:48.567Z,92
2022-10-20T06:38:29.101Z,92
2022-10-20T06:39:09.646Z,92
2022-10-20T06:39:50.066Z,96
2022-10-20T06:40:30.605Z,96
2022-10-20T06:41:11.327Z,96
2022-10-20T06:41:51.803Z,100
2022-10-20T06:42:32.419Z,100
2022-10-20T06:48:57.851Z,116
2022-10-20T06:49:38.380Z,116
2022-10-20T06:50:19.034Z,120
2022-10-20T06:50:59.794Z,120
2022-10-20T06:51:40.147Z,124
2022-10-20T06:52:20.681Z,128
2022-10-20T06:53:01.251Z,128
2022-10-20T06:55:46.750Z,144
2022-10-20T06:56:28.069Z,148
2022-10-20T06:57:08.971Z,148
2022-10-20T07:02:34.874Z,164
2022-10-20T07:03:15.451Z,164
2022-10-20T07:03:57.110Z,164
2022-10-20T07:04:37.780Z,164
2022-10-20T07:05:18.338Z,164
2022-10-20T07:05:59.185Z,164
2022-10-20T07:06:40.023Z,164
2022-10-20T07:12:45.459Z,208
2022-10-20T07:13:25.877Z,212
2022-10-20T07:14:06.590Z,220
2022-10-20T07:14:47.081Z,228
2022-10-20T07:15:27.853Z,236
2022-10-20T07:16:08.574Z,244
2022-10-20T07:16:48.949Z,256
2022-10-20T07:17:29.470Z,264
2022-10-20T07:18:09.996Z,276
2022-10-20T07:18:50.511Z,288
2022-10-20T07:22:14.132Z,340
2022-10-20T07:22:55.029Z,352
2022-10-20T07:23:35.633Z,360
2022-10-20T07:24:16.091Z,372
2022-10-20T07:24:57.099Z,384
2022-10-20T07:25:37.851Z,396
2022-10-20T07:26:18.461Z,416
2022-10-20T07:26:59.201Z,428
2022-10-20T07:31:45.785Z,552
2022-10-20T07:32:26.258Z,572
2022-10-20T07:33:06.783Z,592
2022-10-20T07:33:56.532Z,612
2022-10-20T07:34:29.177Z,628
2022-10-20T07:35:09.617Z,648
2022-10-20T07:39:14.699Z,736
2022-10-20T07:39:55.252Z,748
2022-10-20T07:40:35.927Z,752
2022-10-20T07:42:41.541Z,772
2022-10-20T07:43:21.478Z,772
2022-10-20T07:44:02.232Z,772
2022-10-20T07:44:42.718Z,776
2022-10-20T07:45:23.811Z,772
2022-10-20T07:46:04.091Z,764
2022-10-20T07:46:44.926Z,764
2022-10-20T07:52:56.175Z,744
2022-10-20T07:53:37.657Z,736
2022-10-20T07:54:18.225Z,740
2022-10-20T07:55:02.501Z,740
2022-10-20T07:55:39.944Z,736
2022-10-20T07:56:20.672Z,724
2022-10-20T07:57:01.157Z,700
2022-10-20T07:57:44.424Z,664
2022-10-20T08:01:47.799Z,600
2022-10-20T08:02:29.034Z,588
2022-10-20T08:03:09.659Z,560
2022-10-20T08:03:50.226Z,552
2022-10-20T08:04:30.708Z,560
2022-10-20T08:05:11.303Z,580
2022-10-20T08:05:51.889Z,596
2022-10-20T08:06:32.550Z,580
2022-10-20T08:11:18.185Z,488
2022-10-20T08:11:58.724Z,484
2022-10-20T08:12:39.309Z,492
2022-10-20T08:13:20.210Z,500
2022-10-20T08:14:00.896Z,508
2022-10-20T08:14:42.470Z,544
2022-10-20T08:16:17.765Z,680
2022-10-20T08:17:00.762Z,728
2022-10-20T08:17:42.796Z,760
2022-10-20T08:18:23.880Z,748
2022-10-20T08:19:13.269Z,724
2022-10-20T08:24:29.883Z,628
2022-10-20T08:27:46.841Z,708
2022-10-20T08:28:27.585Z,740
2022-10-20T08:29:08.108Z,776
2022-10-20T08:29:50.970Z,792
2022-10-20T08:30:29.247Z,796
2022-10-20T08:31:09.831Z,780
2022-10-20T08:31:50.367Z,768
2022-10-20T08:32:30.837Z,756
2022-10-20T08:37:56.230Z,720
2022-10-20T08:38:36.782Z,684
2022-10-20T08:39:17.274Z,636
2022-10-20T08:39:57.839Z,584
2022-10-20T08:40:38.376Z,552
2022-10-20T08:42:14.681Z,464
2022-10-20T08:42:40.103Z,432
2022-10-20T08:43:20.577Z,428
2022-10-20T08:46:46.051Z,344
2022-10-20T08:47:27.821Z,328
2022-10-20T08:48:06.657Z,328
2022-10-20T08:48:47.150Z,332
2022-10-20T08:49:27.816Z,340
2022-10-20T08:50:08.455Z,352
2022-10-20T08:50:48.915Z,364
2022-10-20T08:52:11.119Z,376
2022-10-20T08:55:37.200Z,372
2022-10-20T08:56:17.737Z,360
2022-10-20T08:57:03.009Z,360
2022-10-20T09:01:06.392Z,396
2022-10-20T09:01:46.967Z,440
2022-10-20T09:02:27.594Z,464
2022-10-20T09:03:07.919Z,460
2022-10-20T09:03:48.451Z,460
2022-10-20T09:08:13.916Z,488
2022-10-20T09:08:54.342Z,480
2022-10-20T09:09:34.881Z,476
2022-10-20T09:10:16.279Z,484
2022-10-20T09:10:56.860Z,488
2022-10-20T09:11:37.251Z,504
2022-10-20T09:12:17.801Z,500
2022-10-20T09:12:58.365Z,476
2022-10-20T09:17:18.514Z,564
2022-10-20T09:17:59.709Z,568
2022-10-20T09:18:40.882Z,560
2022-10-20T09:19:21.893Z,552
2022-10-20T09:20:03.027Z,528
2022-10-20T09:20:44.034Z,516
2022-10-20T09:21:25.087Z,508
2022-10-20T09:26:37.706Z,436
2022-10-20T09:27:09.497Z,444
2022-10-20T09:27:50.028Z,456
2022-10-20T09:28:34.955Z,476
2022-10-20T09:29:13.659Z,496
2022-10-20T09:29:52.276Z,508
2022-10-20T09:33:25.897Z,556
2022-10-20T09:37:08.990Z,480
2022-10-20T09:37:52.168Z,496
2022-10-20T09:38:34.240Z,532
2022-10-20T09:39:15.233Z,544
2022-10-20T09:40:39.739Z,532
2022-10-20T09:44:01.087Z,408
2022-10-20T09:44:41.834Z,376
2022-10-20T09:47:20.910Z,244
2022-10-20T09:48:06.516Z,232
2022-10-20T09:48:51.921Z,228
2022-10-20T09:51:23.503Z,260
2022-10-20T09:52:03.825Z,268
2022-10-20T09:52:44.986Z,280
2022-10-20T09:53:25.532Z,304
2022-10-20T09:54:06.018Z,308
2022-10-20T09:54:46.514Z,300
2022-10-20T09:55:26.971Z,292
2022-10-20T09:56:07.518Z,288
2022-10-20T10:00:53.172Z,272
2022-10-20T10:01:35.851Z,284
2022-10-20T10:05:37.365Z,304
2022-10-20T10:06:17.838Z,316
2022-10-20T10:06:58.467Z,332
2022-10-20T10:07:39.178Z,352
2022-10-20T10:08:19.925Z,368
2022-10-20T10:09:01.014Z,380
2022-10-20T10:09:42.402Z,384
2022-10-20T10:15:46.923Z,312
2022-10-20T10:16:29.713Z,312
2022-10-20T10:17:10.108Z,316
2022-10-20T10:17:50.624Z,324
2022-10-20T10:18:31.146Z,328
2022-10-20T10:19:11.636Z,328
2022-10-20T10:25:16.902Z,332
2022-10-20T10:25:59.105Z,324
2022-10-20T10:26:37.863Z,316
2022-10-20T10:27:18.448Z,316
2022-10-20T10:27:58.879Z,312
2022-10-20T10:28:39.411Z,316
2022-10-20T10:29:19.881Z,324
2022-10-20T10:30:00.367Z,332
2022-10-20T10:30:40.921Z,336
2022-10-20T10:31:21.373Z,344
2022-10-20T10:32:01.966Z,340
2022-10-20T10:38:06.723Z,436
2022-10-20T10:38:47.206Z,440
2022-10-20T10:39:27.715Z,448
2022-10-20T10:40:08.252Z,448
2022-10-20T10:40:48.747Z,428
2022-10-20T10:41:29.362Z,404
2022-10-20T10:42:09.805Z,376
2022-10-20T10:42:50.332Z,360
2022-10-20T10:43:30.829Z,352
2022-10-20T10:44:11.288Z,356
2022-10-20T10:44:51.801Z,380
2022-10-20T10:50:13.725Z,324
2022-10-20T10:50:53.349Z,336
2022-10-20T10:51:34.552Z,344
2022-10-20T10:52:15.105Z,356
2022-10-20T10:52:55.661Z,364
2022-10-20T10:53:36.211Z,376
2022-10-20T10:57:10.458Z,396
2022-10-20T10:57:50.048Z,392
2022-10-20T10:58:30.496Z,384
2022-10-20T10:59:11.128Z,380
2022-10-20T10:59:51.664Z,372
2022-10-20T11:00:32.260Z,368
2022-10-20T11:01:12.758Z,360
2022-10-20T11:01:53.333Z,352
2022-10-20T11:02:33.957Z,348
2022-10-20T11:06:39.080Z,292
2022-10-20T11:07:19.681Z,288
2022-10-20T11:08:01.253Z,280
2022-10-20T11:08:41.635Z,276
2022-10-20T11:09:22.815Z,272
2022-10-20T11:11:29.061Z,268
2022-10-20T11:12:09.296Z,268
2022-10-20T11:12:50.156Z,264
2022-10-20T11:13:30.898Z,264
2022-10-20T11:14:11.424Z,252
2022-10-20T11:17:39.778Z,240
2022-10-20T11:18:21.018Z,236
2022-10-20T11:19:01.752Z,244
2022-10-20T11:19:42.564Z,252
2022-10-20T11:20:22.754Z,268
2022-10-20T11:21:03.526Z,300
2022-10-20T11:23:08.755Z,332
2022-10-20T11:23:49.089Z,344
2022-10-20T11:24:29.640Z,340
2022-10-20T11:25:10.139Z,332
2022-10-20T11:25:50.697Z,324
2022-10-20T11:26:31.320Z,308
2022-10-20T11:27:11.911Z,308
2022-10-20T11:27:52.382Z,312
2022-10-20T11:28:32.927Z,308
2022-10-20T11:33:03.338Z,324
2022-10-20T11:33:43.941Z,324
2022-10-20T11:34:24.381Z,324
2022-10-20T11:35:05.024Z,328
2022-10-20T11:35:45.470Z,332
2022-10-20T11:36:25.935Z,332
2022-10-20T11:37:13.450Z,328
2022-10-20T11:37:54.957Z,332
2022-10-20T11:38:35.776Z,332
2022-10-20T11:39:17.067Z,336
2022-10-20T11:39:57.514Z,320
2022-10-20T11:46:28.700Z,264
2022-10-20T11:47:09.256Z,284
2022-10-20T11:47:49.792Z,308
2022-10-20T11:48:30.322Z,320
2022-10-20T11:52:13.773Z,164
2022-10-20T11:53:20.371Z,176
2022-10-20T12:32:07.977Z,468
2022-10-20T12:32:49.314Z,480
2022-10-20T12:33:30.201Z,496
2022-10-20T12:34:11.399Z,516
2022-10-20T12:34:53.774Z,552
2022-10-20T12:37:55.665Z,680
2022-10-20T12:38:38.536Z,708
2022-10-20T12:39:19.593Z,724
2022-10-20T12:40:00.638Z,740
2022-10-20T12:40:41.624Z,740
2022-10-20T12:41:22.610Z,740
2022-10-20T12:43:27.446Z,704
2022-10-20T12:44:08.473Z,684
2022-10-20T12:47:39.350Z,612
2022-10-20T12:48:20.333Z,596
2022-10-20T12:49:00.868Z,588
2022-10-20T12:49:41.313Z,576
2022-10-20T12:50:21.948Z,572
2022-10-20T12:51:02.477Z,568
2022-10-20T12:51:43.049Z,576
2022-10-20T12:52:23.582Z,584
2022-10-20T12:57:59.338Z,684
2022-10-20T12:58:39.787Z,684
2022-10-20T12:59:20.375Z,684
2022-10-20T13:00:00.919Z,688
2022-10-20T13:00:41.575Z,684
2022-10-20T13:01:22.212Z,672
2022-10-20T13:02:02.656Z,648
2022-10-20T13:02:43.151Z,612
2022-10-20T13:03:26.094Z,576
2022-10-20T13:04:04.534Z,540
2022-10-20T13:06:49.073Z,504
2022-10-20T13:07:30.161Z,508
2022-10-20T13:08:11.201Z,520
2022-10-20T13:08:53.722Z,520
2022-10-20T13:09:35.605Z,524
2022-10-20T13:10:19.114Z,532
2022-10-20T13:10:59.677Z,540
2022-10-20T13:11:40.570Z,540
2022-10-20T13:12:24.463Z,544
2022-10-20T13:13:07.598Z,540
2022-10-20T13:13:49.860Z,540
2022-10-20T13:14:30.905Z,544
2022-10-20T13:15:11.561Z,544
2022-10-20T13:15:52.093Z,540
2022-10-20T13:16:33.224Z,540
2022-10-20T13:17:13.696Z,528
2022-10-20T13:17:55.126Z,516
2022-10-20T13:21:58.952Z,468
2022-10-20T13:22:39.447Z,476
2022-10-20T13:23:20.116Z,476
2022-10-20T13:24:00.591Z,468
2022-10-20T13:24:44.098Z,452
2022-10-20T13:25:21.699Z,440
2022-10-20T13:26:02.150Z,440
2022-10-20T13:26:42.916Z,448
2022-10-20T13:27:23.536Z,476
2022-10-20T13:28:04.149Z,512
2022-10-20T13:33:01.493Z,600
2022-10-20T13:33:38.626Z,608
2022-10-20T13:34:10.309Z,620
2022-10-20T13:34:51.014Z,636
2022-10-20T13:35:31.629Z,652
2022-10-20T13:36:12.174Z,680
2022-10-20T13:36:52.694Z,704
2022-10-20T13:37:33.184Z,716
2022-10-20T13:38:13.764Z,744
2022-10-20T13:38:54.201Z,776
2022-10-20T13:44:59.488Z,932
2022-10-20T13:45:40.546Z,932
2022-10-20T13:46:21.247Z,916
2022-10-20T13:47:01.894Z,908
2022-10-20T13:47:42.417Z,892
2022-10-20T13:48:24.126Z,872
2022-10-20T13:53:49.339Z,960
2022-10-20T13:54:29.932Z,960
2022-10-20T13:55:10.479Z,956
2022-10-20T13:55:50.989Z,964
2022-10-20T13:56:34.833Z,960
2022-10-20T13:57:12.247Z,960
2022-10-20T13:57:55.240Z,960
2022-10-20T13:58:33.767Z,948
2022-10-20T13:59:14.407Z,948
2022-10-20T14:03:19.048Z,1040
2022-10-20T14:03:59.959Z,1060
2022-10-20T14:04:40.513Z,1100
2022-10-20T14:05:20.942Z,1108
2022-10-20T14:06:01.434Z,1080
2022-10-20T14:06:41.935Z,1096
2022-10-20T14:07:22.542Z,1088
2022-10-20T14:08:04.571Z,1092
2022-10-20T14:08:44.001Z,1112
2022-10-20T14:09:24.134Z,1128
2022-10-20T14:14:49.285Z,1020
2022-10-20T14:15:29.980Z,992
2022-10-20T14:16:10.480Z,980
2022-10-20T14:16:51.003Z,980
2022-10-20T14:17:32.247Z,964
2022-10-20T14:18:13.134Z,960
2022-10-20T14:18:54.017Z,892
2022-10-20T14:24:59.575Z,948
2022-10-20T14:25:40.026Z,956
2022-10-20T14:26:20.550Z,964
2022-10-20T14:27:01.115Z,972
2022-10-20T14:27:41.731Z,984
2022-10-20T14:28:22.353Z,1000
2022-10-20T14:29:02.799Z,1016
2022-10-20T14:29:43.371Z,1028
2022-10-20T14:30:23.963Z,1016
2022-10-20T14:36:29.358Z,1012
2022-10-20T14:37:10.093Z,1000
2022-10-20T14:37:50.720Z,1000
2022-10-20T14:38:31.336Z,992
2022-10-20T14:39:11.839Z,920
2022-10-20T14:39:53.185Z,912
2022-10-20T14:40:33.342Z,868
2022-10-20T14:41:14.230Z,836
2022-10-20T14:47:15.510Z,616
2022-10-20T14:47:56.342Z,580
2022-10-20T14:48:36.969Z,540
2022-10-20T14:49:18.227Z,520
2022-10-20T14:49:58.694Z,516
2022-10-20T14:50:39.311Z,512
2022-10-20T14:51:19.747Z,504
2022-10-20T14:52:00.256Z,488
2022-10-20T14:56:05.384Z,444
2022-10-20T14:56:45.864Z,436
2022-10-20T14:57:26.337Z,428
2022-10-20T14:58:06.876Z,420
2022-10-20T14:58:48.238Z,416
2022-10-20T14:59:30.639Z,408
2022-10-20T15:04:15.277Z,420
2022-10-20T15:04:55.869Z,436
2022-10-20T15:05:36.408Z,448
2022-10-20T15:06:17.679Z,456
2022-10-20T15:06:57.412Z,464
2022-10-20T15:07:38.106Z,480
2022-10-20T15:08:18.568Z,504
2022-10-20T15:08:59.216Z,516
2022-10-20T15:09:39.728Z,544
2022-10-20T15:10:20.333Z,556
2022-10-20T15:15:41.423Z,696
2022-10-20T15:16:22.130Z,704
2022-10-20T15:17:02.660Z,768
2022-10-20T15:17:43.138Z,696
2022-10-20T15:18:23.586Z,612
2022-10-20T15:19:04.105Z,540
2022-10-20T15:19:44.645Z,548
2022-10-20T15:20:25.143Z,500
2022-10-20T15:21:05.671Z,464
2022-10-20T15:21:46.162Z,452
2022-10-20T15:28:31.267Z,396
2022-10-20T15:29:11.800Z,388
2022-10-20T15:29:52.282Z,384
2022-10-20T15:30:32.806Z,380
2022-10-20T15:31:13.297Z,376
2022-10-20T15:31:53.886Z,368
2022-10-20T15:32:34.474Z,356
2022-10-20T15:33:14.900Z,344
2022-10-20T15:33:55.422Z,336
2022-10-20T15:34:35.919Z,328
2022-10-20T15:41:21.218Z,280
2022-10-20T15:42:01.768Z,276
2022-10-20T15:42:42.277Z,276
2022-10-20T15:43:22.886Z,268
2022-10-20T15:44:03.492Z,264
2022-10-20T15:44:43.929Z,264
2022-10-20T15:45:24.497Z,256
2022-10-20T15:46:05.007Z,252
2022-10-20T15:46:45.569Z,240
2022-10-20T15:53:31.097Z,172
2022-10-20T15:54:11.561Z,168
2022-10-20T15:54:52.226Z,168
2022-10-20T15:55:34.933Z,160
2022-10-20T15:56:15.739Z,160
2022-10-20T15:59:53.675Z,144
2022-10-20T16:00:33.646Z,136
2022-10-20T16:01:14.225Z,132
2022-10-20T16:01:54.761Z,124
2022-10-20T16:02:35.588Z,124
2022-10-20T16:03:15.637Z,124
2022-10-20T16:03:56.185Z,124
2022-10-20T16:04:36.786Z,128
2022-10-20T16:11:23.013Z,108
2022-10-20T16:12:03.570Z,104
2022-10-20T16:12:44.151Z,96
2022-10-20T16:13:24.770Z,88
2022-10-20T16:14:05.276Z,88
2022-10-20T16:14:45.916Z,84
2022-10-20T16:15:28.830Z,76
2022-10-20T16:16:07.729Z,72
2022-10-20T16:21:32.153Z,48
2022-10-20T16:22:12.656Z,48
2022-10-20T16:23:33.748Z,44
2022-10-20T16:24:14.534Z,40
2022-10-20T16:24:54.834Z,36
2022-10-20T16:25:35.262Z,36
2022-10-20T16:26:15.864Z,28
2022-10-20T16:26:56.498Z,28
2022-10-20T16:27:37.520Z,24
2022-10-20T16:29:02.351Z,24
2022-10-20T16:35:32.896Z,8
2022-10-20T16:36:13.691Z,8
2022-10-20T16:36:54.429Z,8
2022-10-20T16:37:35.041Z,8
2022-10-20T16:38:16.061Z,8
2022-10-20T16:38:56.816Z,4
2022-10-20T16:39:37.421Z,8
2022-10-20T16:44:22.296Z,0
2022-10-20T16:45:02.854Z,4
2022-10-20T16:45:43.519Z,4
2022-10-20T16:46:23.996Z,4
2022-10-20T16:47:04.658Z,0
2022-10-20T16:47:45.176Z,0
2022-10-20T16:48:25.797Z,4
2022-10-20T16:49:06.269Z,4
2022-10-20T16:49:46.652Z,0
2022-10-20T16:50:27.260Z,0
2022-10-20T16:54:38.560Z,0
2022-10-20T16:55:19.025Z,0
2022-10-20T16:55:59.536Z,0
2022-10-20T16:56:40.303Z,0
2022-10-20T16:57:20.953Z,0
2022-10-20T16:58:01.459Z,0
2022-10-20T16:58:42.088Z,0
2022-10-20T16:59:22.579Z,0
2022-10-20T17:00:03.235Z,0
2022-10-20T17:06:25.276Z,0
2022-10-20T17:07:05.712Z,0
2022-10-20T17:07:46.384Z,0
2022-10-20T17:08:26.795Z,0
2022-10-20T17:09:07.495Z,0
2022-10-20T17:09:48.058Z,0
2022-10-20T17:10:28.579Z,0
2022-10-20T17:11:09.044Z,0
2022-10-20T17:11:49.577Z,0
2022-10-20T17:12:30.092Z,0
2022-10-20T17:18:35.204Z,0
2022-10-20T17:19:15.602Z,0
2022-10-20T17:19:56.117Z,0
2022-10-20T17:20:36.903Z,0
2022-10-20T17:23:51.095Z,0
2022-10-20T17:24:31.891Z,0
2022-10-20T17:25:12.378Z,0
2022-10-20T17:25:53.124Z,0
2022-10-20T17:29:11.824Z,0
2022-10-20T17:29:52.525Z,0
2022-10-20T17:30:33.033Z,0
2022-10-20T17:31:13.544Z,0
2022-10-20T17:31:53.978Z,0
2022-10-20T17:32:34.759Z,0
2022-10-20T17:33:15.058Z,0
2022-10-20T17:33:55.565Z,0
2022-10-20T17:34:36.018Z,0
2022-10-20T17:35:16.545Z,0
2022-10-20T17:42:01.884Z,0
2022-10-20T17:42:42.357Z,0
2022-10-20T17:43:22.853Z,0
2022-10-20T17:44:03.391Z,0
2022-10-20T17:44:43.894Z,0
2022-10-20T17:45:24.380Z,0
2022-10-20T17:46:04.907Z,0
2022-10-20T17:46:47.291Z,0
2022-10-20T18:34:28.914Z,0
2022-10-20T18:35:09.323Z,0
2022-10-20T18:35:49.652Z,0
2022-10-20T18:36:30.156Z,0
2022-10-20T18:37:10.597Z,0
2022-10-20T18:37:51.088Z,0
2022-10-20T18:38:31.606Z,0
2022-10-20T18:39:12.085Z,0
2022-10-20T18:39:52.578Z,0
2022-10-20T18:40:33.073Z,0
2022-10-20T18:47:18.405Z,0
2022-10-20T18:47:58.931Z,0
2022-10-20T18:48:39.366Z,0
2022-10-20T18:49:19.886Z,0
2022-10-20T18:50:00.376Z,0
2022-10-20T18:50:40.860Z,0
2022-10-20T18:51:21.329Z,0
2022-10-20T18:52:01.829Z,0
2022-10-20T18:52:42.302Z,0
2022-10-20T18:53:22.826Z,0
2022-10-20T18:54:03.395Z,0
2022-10-20T19:01:29.922Z,0
2022-10-20T19:02:10.322Z,0
2022-10-20T19:03:31.304Z,0
2022-10-20T19:04:11.892Z,0
2022-10-20T19:04:52.443Z,0
2022-10-20T19:05:32.926Z,0
2022-10-20T19:06:13.464Z,0
2022-10-20T19:12:58.421Z,0
2022-10-20T19:13:38.944Z,0
2022-10-20T19:14:19.393Z,0
2022-10-20T19:15:00.418Z,0
2022-10-20T19:15:40.868Z,0
2022-10-20T19:16:21.378Z,0
2022-10-20T19:17:01.861Z,0
2022-10-20T19:17:42.340Z,0
2022-10-20T19:18:22.888Z,0
2022-10-20T19:19:03.389Z,0
2022-10-20T19:25:48.546Z,0
2022-10-20T19:26:29.075Z,0
2022-10-20T19:27:26.830Z,0
2022-10-20T19:27:50.076Z,0
2022-10-20T19:28:30.559Z,0
2022-10-20T19:29:11.210Z,0
2022-10-20T19:29:51.604Z,0
2022-10-20T19:30:32.106Z,0
2022-10-20T19:31:18.232Z,0
2022-10-20T19:31:53.126Z,0
2022-10-20T19:32:33.639Z,0
2022-10-20T19:37:18.568Z,0
2022-10-20T19:37:59.082Z,0
2022-10-20T19:38:39.642Z,0
2022-10-20T19:39:20.151Z,0
2022-10-20T19:40:00.628Z,0
2022-10-20T19:40:41.061Z,0
2022-10-20T19:41:21.577Z,0
2022-10-20T19:42:02.099Z,0
2022-10-20T19:42:42.625Z,0
2022-10-20T19:43:23.098Z,0
2022-10-20T19:44:03.625Z,0
2022-10-20T19:49:03.820Z,0
2022-10-20T19:49:44.262Z,0
2022-10-20T19:50:24.716Z,0
2022-10-20T19:51:05.283Z,0
2022-10-20T19:51:45.757Z,0
2022-10-20T19:52:26.208Z,0
2022-10-20T19:53:06.739Z,0